Time;durP1;ratioP1;P1;durP2;ratioP2;P2;SDS_P1;SDS_P2;PMS_P1;PMS_P2;Temp;Humidity;BMP_temperature;BMP_pressure;BME280_temperature;BME280_humidity;BME280_pressure;Samples;Min_cycle;Max_cycle;Signal;HPM_P1;HPM_P2
2022/11/21 04:33:21;;;;;;;26.70;25.60;;;6.30;99.90;;;;;;5387486;23;20491;-78
2022/11/21 04:35:48;;;;;;;25.87;24.87;;;6.30;99.90;;;;;;4971238;28;20515;-81
2022/11/21 04:38:15;;;;;;;25.87;24.80;;;6.30;99.90;;;;;;4986116;28;20450;-80
2022/11/21 04:40:44;;;;;;;25.97;24.87;;;6.30;99.90;;;;;;4979199;28;20447;-85
2022/11/21 04:43:10;;;;;;;28.10;26.90;;;6.40;99.90;;;;;;4979477;28;20855;-76
2022/11/21 04:45:37;;;;;;;28.83;27.63;;;6.40;99.90;;;;;;4974585;28;20807;-77
2022/11/21 04:48:04;;;;;;;28.80;27.60;;;6.40;99.90;;;;;;4973166;28;20451;-80
2022/11/21 04:50:32;;;;;;;27.93;26.73;;;6.40;99.90;;;;;;4974147;28;20937;-83
2022/11/21 04:52:59;;;;;;;28.83;27.50;;;6.40;99.90;;;;;;4973620;28;20971;-83
2022/11/21 04:55:31;;;;;;;28.30;26.90;;;6.40;99.90;;;;;;4973967;28;20968;-85
2022/11/21 04:57:58;;;;;;;28.23;27.03;;;6.40;99.90;;;;;;4974233;28;20451;-82
2022/11/21 05:00:25;;;;;;;29.17;27.97;;;6.40;99.90;;;;;;4973862;28;20451;-84
2022/11/21 05:02:52;;;;;;;28.77;27.57;;;6.40;99.90;;;;;;4973484;28;20483;-84
2022/11/21 05:05:19;;;;;;;28.17;26.97;;;6.50;99.90;;;;;;4973409;28;20854;-86
2022/11/21 05:07:47;;;;;;;27.90;26.70;;;6.40;99.90;;;;;;4973185;28;20448;-84
2022/11/21 05:10:13;;;;;;;28.20;27.00;;;6.40;99.90;;;;;;4973392;28;20452;-82
2022/11/21 05:15:24;;;;;;;28.63;27.47;;;6.40;99.90;;;;;;4973984;28;20551;-87
2022/11/21 05:17:51;;;;;;;26.77;25.67;;;6.40;99.90;;;;;;4973848;28;20484;-87
2022/11/21 05:20:18;;;;;;;27.07;25.97;;;6.40;99.90;;;;;;4973119;28;20444;-85
2022/11/21 05:22:48;;;;;;;27.37;26.27;;;6.50;99.90;;;;;;4972993;28;20483;-84
2022/11/21 05:25:17;;;;;;;28.37;27.07;;;6.40;99.90;;;;;;4973064;28;20459;-83
2022/11/21 05:27:43;;;;;;;28.33;27.00;;;6.40;99.90;;;;;;4973328;28;20542;-82
2022/11/21 05:30:11;;;;;;;27.87;26.67;;;6.40;99.90;;;;;;4975453;28;20942;-81
2022/11/21 05:32:38;;;;;;;28.00;26.80;;;6.40;99.90;;;;;;4992396;28;20443;-80
2022/11/21 05:35:06;;;;;;;27.67;26.57;;;6.40;99.90;;;;;;4992084;28;20516;-80
2022/11/21 05:37:33;;;;;;;28.20;26.73;;;6.40;99.90;;;;;;4992122;28;20454;-80
2022/11/21 05:40:00;;;;;;;28.20;27.00;;;6.30;99.90;;;;;;4991850;28;20451;-79
2022/11/21 05:45:09;;;;;;;27.17;26.07;;;6.10;99.90;;;;;;4991788;28;20467;-79
2022/11/21 05:47:36;;;;;;;27.13;26.03;;;6.10;99.90;;;;;;4992056;28;20459;-80
2022/11/21 05:50:03;;;;;;;27.07;25.97;;;6.10;99.90;;;;;;4991839;28;20807;-82
2022/11/21 05:52:30;;;;;;;27.90;26.63;;;6.10;99.90;;;;;;4990706;28;20442;-83
2022/11/21 05:54:57;;;;;;;28.50;26.90;;;6.20;99.90;;;;;;4991878;28;20828;-82
2022/11/21 05:57:24;;;;;;;26.57;25.47;;;6.30;99.90;;;;;;4992112;28;20565;-79
2022/11/21 05:59:52;;;;;;;27.23;26.13;;;6.30;99.90;;;;;;4991771;28;20955;-80
2022/11/21 06:05:03;;;;;;;26.00;25.00;;;6.30;99.90;;;;;;4991560;28;20426;-78
2022/11/21 06:07:30;;;;;;;26.87;25.67;;;6.20;99.90;;;;;;4991703;28;20458;-78
2022/11/21 06:09:56;;;;;;;25.57;24.57;;;6.20;99.90;;;;;;4991554;28;20458;-78
2022/11/21 06:12:23;;;;;;;25.47;24.37;;;6.30;99.90;;;;;;4991561;28;20442;-77
2022/11/21 06:14:50;;;;;;;25.33;24.23;;;6.30;99.90;;;;;;4991377;28;20454;-77
2022/11/21 06:17:18;;;;;;;27.20;26.00;;;6.30;99.90;;;;;;4991290;28;20442;-78
2022/11/21 06:19:44;;;;;;;25.43;24.43;;;6.40;99.90;;;;;;4991214;28;20464;-78
2022/11/21 06:22:11;;;;;;;24.60;23.50;;;6.40;99.90;;;;;;4991360;28;20509;-78
2022/11/21 06:24:38;;;;;;;23.97;22.87;;;6.50;99.90;;;;;;4991251;28;20454;-79
2022/11/21 06:27:05;;;;;;;23.30;22.20;;;6.50;99.90;;;;;;4991312;28;20551;-80
2022/11/21 06:29:31;;;;;;;23.40;22.30;;;6.60;99.90;;;;;;4991223;28;20457;-80
2022/11/21 06:31:58;;;;;;;22.57;21.70;;;6.70;99.90;;;;;;4990950;28;20463;-79
2022/11/21 06:34:27;;;;;;;23.20;22.10;;;6.80;99.90;;;;;;4991012;28;20569;-79
2022/11/21 06:36:54;;;;;;;21.97;21.13;;;6.90;99.90;;;;;;4991019;28;20457;-79
2022/11/21 06:39:20;;;;;;;21.00;20.20;;;6.90;99.90;;;;;;4990956;28;20453;-80
2022/11/21 06:41:49;;;;;;;21.80;20.77;;;6.80;99.90;;;;;;4990809;28;20466;-80
2022/11/21 06:44:16;;;;;;;21.20;20.30;;;6.80;99.90;;;;;;4990741;28;20465;-80
2022/11/21 06:46:43;;;;;;;20.33;19.33;;;6.80;99.90;;;;;;4990761;28;20447;-82
2022/11/21 06:49:10;;;;;;;19.30;18.07;;;6.80;99.90;;;;;;4990833;28;20453;-83
2022/11/21 06:51:38;;;;;;;18.33;17.63;;;6.60;99.90;;;;;;4991095;28;20817;-83
2022/11/21 06:54:05;;;;;;;18.17;17.37;;;6.50;99.90;;;;;;4990654;28;20450;-85
2022/11/21 06:56:32;;;;;;;19.13;18.13;;;6.30;99.90;;;;;;4990769;28;20442;-83
2022/11/21 06:58:59;;;;;;;19.30;18.20;;;6.40;99.90;;;;;;4990493;28;20447;-85
2022/11/21 07:01:27;;;;;;;18.07;17.23;;;6.30;99.90;;;;;;4990754;28;20443;-82
2022/11/21 07:03:54;;;;;;;18.43;17.60;;;6.30;99.90;;;;;;4990758;28;20489;-87
2022/11/21 07:06:20;;;;;;;17.17;16.47;;;6.30;99.90;;;;;;4991802;28;20446;-83
2022/11/21 07:08:52;;;;;;;16.50;15.80;;;6.30;99.90;;;;;;4990658;28;20451;-81
2022/11/21 07:11:19;;;;;;;16.43;15.60;;;6.20;99.90;;;;;;4990584;28;20557;-83
2022/11/21 07:13:45;;;;;;;15.43;14.83;;;6.20;99.90;;;;;;4990731;28;20453;-79
2022/11/21 07:16:14;;;;;;;15.60;14.90;;;6.20;99.90;;;;;;4992191;28;20948;-81
2022/11/21 07:18:41;;;;;;;15.40;14.80;;;6.20;99.90;;;;;;4990672;28;20200;-82
2022/11/21 07:21:09;;;;;;;13.53;13.03;;;6.40;99.90;;;;;;4991526;28;20447;-83
2022/11/21 07:23:36;;;;;;;12.97;12.47;;;6.80;99.90;;;;;;4999133;28;20474;-83
2022/11/21 07:26:06;;;;;;;12.67;12.27;;;7.10;99.90;;;;;;5002888;28;20704;-79
2022/11/21 07:28:33;;;;;;;12.83;12.23;;;7.20;99.90;;;;;;4990232;28;20439;-79
2022/11/21 07:31:02;;;;;;;12.00;11.60;;;7.20;99.90;;;;;;5002740;28;20470;-83
2022/11/21 07:33:29;;;;;;;12.20;11.70;;;7.40;99.90;;;;;;5009626;28;20529;-82
2022/11/21 07:35:56;;;;;;;11.70;11.10;;;7.90;99.90;;;;;;5009707;28;21014;-81
2022/11/21 07:38:24;;;;;;;12.17;11.63;;;8.50;99.90;;;;;;5008308;28;20861;-79
2022/11/21 07:40:50;;;;;;;12.43;11.90;;;8.30;99.90;;;;;;5009785;28;20939;-78
2022/11/21 07:43:19;;;;;;;13.07;12.57;;;7.90;99.90;;;;;;5009741;28;20490;-81
2022/11/21 07:45:45;;;;;;;11.80;11.10;;;7.50;99.90;;;;;;5009890;28;21023;-81
2022/11/21 07:48:12;;;;;;;11.80;11.33;;;7.60;99.90;;;;;;5009409;28;20461;-79
2022/11/21 07:50:39;;;;;;;12.73;12.13;;;7.40;99.90;;;;;;5009791;28;20492;-79
2022/11/21 07:53:08;;;;;;;12.30;11.80;;;7.10;99.90;;;;;;5009624;28;20568;-80
2022/11/21 07:55:35;;;;;;;12.03;11.43;;;7.20;99.90;;;;;;5009448;28;20442;-80
2022/11/21 07:58:03;;;;;;;11.73;11.07;;;7.70;99.90;;;;;;5009684;28;20449;-80
2022/11/21 08:00:33;;;;;;;12.63;11.67;;;8.00;99.90;;;;;;5009428;28;20449;-81
2022/11/21 08:02:59;;;;;;;11.00;10.57;;;8.50;99.90;;;;;;5009313;28;20496;-81
2022/11/21 08:05:26;;;;;;;12.80;12.10;;;8.80;99.90;;;;;;5009508;28;20456;-81
2022/11/21 08:07:53;;;;;;;12.43;11.77;;;9.00;99.90;;;;;;5009420;28;20454;-80
2022/11/21 08:10:20;;;;;;;12.10;11.70;;;9.10;99.90;;;;;;5009289;28;20512;-80
2022/11/21 08:12:47;;;;;;;12.93;12.33;;;9.10;99.90;;;;;;5009061;28;20442;-80
2022/11/21 08:15:14;;;;;;;12.67;11.87;;;9.40;99.90;;;;;;5009719;28;20453;-79
2022/11/21 08:17:43;;;;;;;11.57;10.97;;;9.90;99.90;;;;;;5013114;28;20572;-78
2022/11/21 08:20:10;;;;;;;11.60;11.00;;;10.00;99.90;;;;;;5008277;28;20469;-80
2022/11/21 08:22:41;;;;;;;10.43;9.90;;;10.40;99.90;;;;;;5004488;28;20485;-80
2022/11/21 08:25:10;;;;;;;10.90;10.50;;;10.50;99.90;;;;;;5002542;28;20450;-79
2022/11/21 08:27:38;;;;;;;11.30;10.90;;;10.40;99.90;;;;;;5009906;28;20450;-79
2022/11/21 08:30:07;;;;;;;10.70;10.30;;;10.30;99.90;;;;;;5012974;28;20871;-79
2022/11/21 08:32:34;;;;;;;10.50;10.10;;;10.20;99.90;;;;;;5010717;28;20452;-79
2022/11/21 08:35:03;;;;;;;12.03;11.30;;;10.30;99.90;;;;;;5012289;28;20572;-79
2022/11/21 08:37:30;;;;;;;11.50;10.90;;;10.30;99.90;;;;;;5012637;28;20450;-78
2022/11/21 08:39:58;;;;;;;10.97;10.57;;;10.60;99.90;;;;;;5012897;28;20781;-78
2022/11/21 08:42:25;;;;;;;11.27;10.77;;;10.80;99.90;;;;;;5012448;28;20499;-78
2022/11/21 08:44:52;;;;;;;10.83;10.43;;;11.30;99.90;;;;;;5012507;28;20491;-77
2022/11/21 08:47:19;;;;;;;12.47;11.80;;;11.80;99.90;;;;;;5012348;28;20885;-78
2022/11/21 08:49:46;;;;;;;11.17;10.77;;;12.20;99.90;;;;;;5012151;28;20466;-77
2022/11/21 08:52:16;;;;;;;11.43;10.93;;;12.00;99.90;;;;;;5012253;28;20453;-77
2022/11/21 08:54:43;;;;;;;12.50;11.80;;;11.90;99.90;;;;;;5012348;28;20446;-77
2022/11/21 08:57:09;;;;;;;12.07;11.53;;;11.60;99.90;;;;;;5012244;28;20836;-78
2022/11/21 08:59:36;;;;;;;10.87;10.37;;;11.80;99.90;;;;;;5012336;28;20457;-78
2022/11/21 09:02:03;;;;;;;11.00;10.40;;;12.40;99.90;;;;;;5012204;28;20446;-78
2022/11/21 09:04:30;;;;;;;10.87;10.47;;;12.40;99.90;;;;;;5012101;28;20486;-77
2022/11/21 09:06:56;;;;;;;11.03;10.50;;;12.40;99.90;;;;;;5012150;28;20821;-77
2022/11/21 09:09:24;;;;;;;11.50;10.70;;;12.50;99.90;;;;;;5012415;28;20457;-77
2022/11/21 09:11:51;;;;;;;11.00;10.50;;;12.80;99.90;;;;;;5012033;28;20453;-78
2022/11/21 09:19:46;;;;;;;11.67;10.97;;;13.80;99.90;;;;;;5011739;28;20939;-77
2022/11/21 09:22:13;;;;;;;11.30;10.90;;;14.30;99.90;;;;;;5011844;28;20464;-78
2022/11/21 09:24:41;;;;;;;11.30;10.80;;;14.10;99.70;;;;;;5011922;28;20491;-78
2022/11/21 09:27:08;;;;;;;11.20;10.60;;;13.20;99.90;;;;;;5011909;28;20469;-77
2022/11/21 09:29:59;;;;;;;10.97;10.57;;;13.40;99.90;;;;;;5012101;28;20450;-77
2022/11/21 09:32:25;;;;;;;11.37;10.40;;;12.80;99.90;;;;;;5001178;28;20446;-76
2022/11/21 09:34:52;;;;;;;11.33;10.83;;;13.00;99.90;;;;;;5011639;28;20481;-76
2022/11/21 09:37:19;;;;;;;10.63;10.13;;;13.00;99.90;;;;;;5009660;28;20452;-77
2022/11/21 09:39:47;;;;;;;11.93;11.13;;;13.00;99.90;;;;;;5011258;28;20653;-77
2022/11/21 09:42:32;;;;;;;11.27;10.73;;;13.90;99.90;;;;;;5011241;28;20454;-77
2022/11/21 09:45:07;;;;;;;12.97;12.23;;;14.60;97.80;;;;;;5011398;28;20442;-77
2022/11/21 09:47:36;;;;;;;11.77;11.23;;;14.10;98.70;;;;;;5011083;28;20457;-77
2022/11/21 09:50:06;;;;;;;11.70;11.10;;;14.00;98.70;;;;;;5011336;28;20454;-77
2022/11/21 09:52:39;;;;;;;11.87;11.30;;;14.10;99.50;;;;;;5011380;28;20457;-77
2022/11/21 09:55:18;;;;;;;11.80;11.10;;;15.00;98.10;;;;;;5011146;28;20828;-77
2022/11/21 09:57:47;;;;;;;11.63;11.03;;;15.20;97.00;;;;;;5011122;28;21170;-78
2022/11/21 10:00:18;;;;;;;12.33;11.33;;;15.00;96.80;;;;;;5011270;28;20462;-77
2022/11/21 10:02:45;;;;;;;10.80;10.40;;;14.60;97.60;;;;;;5010918;28;20819;-78
2022/11/21 10:05:15;;;;;;;12.00;11.50;;;14.10;98.40;;;;;;5011606;28;20445;-77
2022/11/21 10:07:43;;;;;;;11.27;10.67;;;13.80;98.30;;;;;;5011636;28;20438;-78
2022/11/21 10:10:20;;;;;;;11.77;11.07;;;14.20;98.70;;;;;;5011549;28;20442;-78
2022/11/21 10:13:00;;;;;;;11.20;10.67;;;15.70;97.10;;;;;;5011189;28;20445;-78
2022/11/21 10:15:36;;;;;;;11.87;11.13;;;16.80;93.80;;;;;;5011208;28;20442;-78
2022/11/21 10:18:22;;;;;;;12.63;11.73;;;17.00;93.20;;;;;;5009536;28;20879;-77
2022/11/21 10:20:57;;;;;;;12.00;11.40;;;17.80;92.30;;;;;;5011454;28;20448;-77
2022/11/21 10:23:36;;;;;;;12.50;11.90;;;18.30;90.10;;;;;;5011363;28;20485;-77
2022/11/21 10:26:15;;;;;;;11.47;11.07;;;17.10;89.10;;;;;;5011364;28;20640;-77
2022/11/21 10:28:49;;;;;;;11.13;10.73;;;16.60;91.40;;;;;;5011145;28;21005;-78
2022/11/21 10:31:17;;;;;;;12.30;11.40;;;17.00;90.20;;;;;;5011082;28;20477;-78
2022/11/21 10:33:44;;;;;;;11.53;11.03;;;18.00;89.30;;;;;;5010879;28;20453;-78
2022/11/21 10:36:20;;;;;;;12.00;11.50;;;18.40;86.50;;;;;;5008104;28;20456;-78
2022/11/21 10:38:49;;;;;;;12.17;11.67;;;19.10;86.50;;;;;;4991052;28;20562;-77
2022/11/21 10:41:19;;;;;;;12.17;11.47;;;19.40;82.00;;;;;;4991152;28;20736;-77
2022/11/21 10:46:38;;;;;;;11.33;10.93;;;19.60;76.00;;;;;;5006616;28;20461;-76
2022/11/21 10:49:06;;;;;;;11.87;11.30;;;17.70;81.90;;;;;;5010565;28;20802;-76
2022/11/21 10:51:44;;;;;;;12.80;12.10;;;16.20;85.90;;;;;;5010600;28;20477;-76
2022/11/21 10:57:01;;;;;;;11.20;10.60;;;15.00;91.00;;;;;;5010746;28;20993;-77
2022/11/21 10:59:30;;;;;;;12.10;11.63;;;14.90;93.80;;;;;;5010479;28;20446;-78
2022/11/21 11:01:58;;;;;;;11.37;10.87;;;16.10;90.10;;;;;;5010525;28;20796;-78
2022/11/21 11:04:26;;;;;;;11.97;11.27;;;16.80;90.10;;;;;;5010561;28;20486;-78
2022/11/21 11:06:53;;;;;;;12.10;11.50;;;18.10;84.30;;;;;;5010965;28;20561;-76
2022/11/21 11:09:27;;;;;;;11.87;11.27;;;18.70;81.10;;;;;;5010720;28;20450;-77
2022/11/21 11:11:54;;;;;;;11.10;10.50;;;18.40;81.70;;;;;;5011057;28;20460;-76
2022/11/21 11:14:32;;;;;;;12.10;11.30;;;18.40;80.90;;;;;;5010799;28;20452;-76
2022/11/21 11:16:59;;;;;;;11.50;11.00;;;17.30;81.40;;;;;;5010044;28;20449;-77
2022/11/21 11:19:28;;;;;;;10.70;10.20;;;15.90;86.40;;;;;;5010564;28;20446;-77
2022/11/21 11:21:56;;;;;;;11.47;10.90;;;16.10;87.70;;;;;;5010397;28;20950;-77
2022/11/21 11:24:28;;;;;;;12.70;12.10;;;17.10;85.40;;;;;;5010344;28;20481;-77
2022/11/21 11:27:00;;;;;;;12.40;11.77;;;17.50;82.10;;;;;;5010652;28;20478;-76
2022/11/21 11:29:29;;;;;;;11.50;11.00;;;17.20;81.40;;;;;;5010502;28;20456;-76
2022/11/21 11:31:59;;;;;;;11.30;10.50;;;16.80;82.10;;;;;;5010352;28;21017;-76
2022/11/21 11:34:29;;;;;;;10.60;10.20;;;15.50;84.10;;;;;;5009780;28;20848;-76
2022/11/21 11:37:08;;;;;;;11.43;10.83;;;14.40;88.00;;;;;;5009762;28;20499;-78
2022/11/21 11:39:40;;;;;;;10.90;10.30;;;14.10;90.70;;;;;;5001597;28;20959;-76
2022/11/21 11:48:02;;;;;;;10.67;10.03;;;14.40;90.70;;;;;;4990930;28;20430;-76
2022/11/21 11:50:32;;;;;;;10.37;9.90;;;14.40;89.50;;;;;;4991302;28;20455;-75
2022/11/21 11:53:05;;;;;;;10.37;9.97;;;14.20;90.40;;;;;;4994756;28;20450;-75
2022/11/21 11:55:39;;;;;;;11.33;10.30;;;13.40;91.40;;;;;;5006128;28;20453;-76
2022/11/21 11:58:13;;;;;;;11.20;10.40;;;12.70;92.80;;;;;;4999283;28;20448;-76
2022/11/21 12:00:47;;;;;;;10.20;9.50;;;12.40;93.10;;;;;;5014525;28;20472;-76
2022/11/21 12:03:19;;;;;;;9.67;9.27;;;12.30;94.10;;;;;;5002826;28;20453;-76
2022/11/21 12:05:56;;;;;;;10.33;9.83;;;12.60;93.80;;;;;;4994844;28;20481;-76
2022/11/21 12:08:30;;;;;;;10.20;9.70;;;12.70;93.70;;;;;;4994978;28;20809;-75
2022/11/21 12:13:48;;;;;;;11.43;10.73;;;13.20;92.10;;;;;;5014173;28;20428;-76
2022/11/21 12:16:18;;;;;;;11.23;10.73;;;14.00;92.00;;;;;;5014318;28;20445;-76
2022/11/21 12:18:52;;;;;;;10.57;10.00;;;15.10;90.60;;;;;;5014252;28;21098;-76
2022/11/21 12:21:19;;;;;;;11.07;10.47;;;15.70;87.10;;;;;;5014027;28;20456;-77
2022/11/21 12:23:49;;;;;;;11.07;10.57;;;15.40;84.40;;;;;;5014165;28;20487;-77
2022/11/21 12:26:40;;;;;;;10.50;9.80;;;14.80;86.60;;;;;;5013820;28;20450;-77
2022/11/21 12:29:20;;;;;;;11.73;11.00;;;14.00;88.40;;;;;;5000657;28;20450;-76
2022/11/21 12:32:03;;;;;;;16.47;14.17;;;13.20;90.90;;;;;;4994553;28;20553;-76
2022/11/21 12:34:50;;;;;;;10.47;9.87;;;12.90;92.00;;;;;;4994194;28;20509;-76
2022/11/21 12:37:27;;;;;;;10.90;10.20;;;12.80;92.90;;;;;;4994204;28;20446;-76
2022/11/21 12:39:59;;;;;;;10.33;9.93;;;12.70;93.30;;;;;;4994391;28;20454;-75
2022/11/21 12:42:50;;;;;;;10.40;10.00;;;12.50;94.00;;;;;;5000851;28;20535;-75
2022/11/21 12:45:30;;;;;;;10.20;9.50;;;12.40;94.00;;;;;;5013250;28;20488;-75
2022/11/21 12:54:49;;;;;;;10.37;9.77;;;12.00;96.00;;;;;;5003149;28;20488;-78
2022/11/21 12:57:19;;;;;;;9.87;9.50;;;12.10;95.70;;;;;;5013232;28;20587;-78
2022/11/21 12:59:53;;;;;;;10.43;10.07;;;12.40;96.00;;;;;;5013434;28;20457;-77
2022/11/21 13:02:31;;;;;;;10.47;9.87;;;12.80;95.10;;;;;;5006644;28;20453;-78
2022/11/21 13:05:01;;;;;;;10.50;10.10;;;13.20;93.90;;;;;;4993101;28;21015;-76
2022/11/21 13:07:30;;;;;;;11.00;10.40;;;13.30;93.00;;;;;;5009337;28;20453;-76
2022/11/21 13:09:59;;;;;;;10.53;9.93;;;13.40;93.00;;;;;;5013043;28;20477;-76
2022/11/21 13:12:32;;;;;;;11.40;10.83;;;13.50;92.40;;;;;;5013107;28;20446;-78
2022/11/21 13:15:09;;;;;;;10.90;10.40;;;13.50;92.80;;;;;;5012646;28;20446;-78
2022/11/21 13:17:44;;;;;;;10.63;10.23;;;13.50;92.10;;;;;;5013106;28;20448;-78
2022/11/21 13:20:26;;;;;;;10.33;9.83;;;13.40;92.30;;;;;;5013016;28;20446;-78
2022/11/21 13:22:58;;;;;;;9.80;9.50;;;13.30;92.40;;;;;;5013167;28;20459;-78
2022/11/21 13:25:47;;;;;;;10.03;9.43;;;13.10;92.60;;;;;;5000276;28;20545;-78
2022/11/21 13:28:38;;;;;;;10.97;10.37;;;12.90;93.00;;;;;;5001965;28;20526;-78
2022/11/21 13:31:28;;;;;;;10.87;10.20;;;13.00;93.20;;;;;;4991550;28;20493;-78
2022/11/21 13:33:55;;;;;;;10.70;10.00;;;13.00;93.30;;;;;;5001953;28;20999;-78
2022/11/21 13:36:40;;;;;;;10.20;9.77;;;13.20;93.00;;;;;;4996318;28;20478;-78
2022/11/21 13:39:33;;;;;;;10.00;9.50;;;13.20;92.80;;;;;;4993286;28;20443;-78
2022/11/21 13:44:55;;;;;;;10.73;10.23;;;13.40;92.90;;;;;;4993207;28;20502;-78
2022/11/21 13:48:04;;;;;;;11.07;10.30;;;13.60;92.60;;;;;;4992861;28;20453;-79
2022/11/21 13:50:50;;;;;;;10.60;10.17;;;13.80;91.90;;;;;;4971647;28;20453;-78
2022/11/21 13:53:39;;;;;;;11.27;10.67;;;14.00;91.60;;;;;;4992429;28;20447;-78
2022/11/21 13:56:17;;;;;;;12.37;11.20;;;13.80;91.40;;;;;;4992395;28;20446;-79
2022/11/21 13:58:54;;;;;;;10.97;10.53;;;13.50;92.30;;;;;;4992247;28;20443;-78
2022/11/21 14:01:56;;;;;;;10.63;10.23;;;13.40;92.50;;;;;;4992746;28;20450;-78
2022/11/21 14:05:11;;;;;;;10.57;9.97;;;13.10;92.30;;;;;;4992810;28;20479;-78
2022/11/21 14:07:39;;;;;;;11.30;10.53;;;12.70;93.00;;;;;;5005357;28;20453;-77
2022/11/21 14:10:19;;;;;;;11.30;10.60;;;12.50;94.00;;;;;;5012204;28;20524;-77
2022/11/21 14:12:49;;;;;;;12.07;11.37;;;12.60;94.30;;;;;;5011159;28;20450;-77
2022/11/21 14:15:27;;;;;;;12.43;11.50;;;12.40;93.60;;;;;;5011297;28;20461;-77
2022/11/21 14:17:57;;;;;;;10.90;10.37;;;12.30;93.40;;;;;;5011695;28;20548;-78
2022/11/21 14:20:26;;;;;;;11.60;10.83;;;12.00;93.60;;;;;;5011754;28;20811;-76
2022/11/21 14:22:56;;;;;;;11.40;10.73;;;11.70;93.60;;;;;;5011858;28;20445;-75
2022/11/21 14:25:32;;;;;;;11.40;10.60;;;11.60;94.30;;;;;;5011909;28;20482;-76
2022/11/21 14:28:00;;;;;;;10.70;10.10;;;11.70;95.20;;;;;;5011274;28;20445;-76
2022/11/21 14:30:33;;;;;;;12.70;11.70;;;11.60;94.90;;;;;;5011500;28;20473;-76
2022/11/21 14:33:21;;;;;;;11.43;10.57;;;11.50;95.40;;;;;;5011279;28;20453;-79
2022/11/21 14:35:49;;;;;;;11.90;11.10;;;11.30;95.50;;;;;;5011138;28;20481;-75
2022/11/21 14:38:16;;;;;;;12.17;11.27;;;11.10;96.00;;;;;;5011275;28;20823;-77
2022/11/21 14:40:44;;;;;;;10.73;10.10;;;11.10;96.10;;;;;;5011354;28;20811;-77
2022/11/21 14:43:28;;;;;;;11.17;10.67;;;11.00;96.40;;;;;;5011563;28;20449;-77
2022/11/21 14:45:55;;;;;;;10.43;10.00;;;11.00;97.10;;;;;;5011272;28;20856;-77
2022/11/21 14:48:26;;;;;;;12.10;11.40;;;10.80;97.40;;;;;;5011087;28;20454;-77
2022/11/21 14:50:53;;;;;;;11.90;11.20;;;10.80;98.10;;;;;;5011032;28;20446;-77
2022/11/21 14:53:20;;;;;;;11.33;10.60;;;10.70;98.80;;;;;;5010921;28;20473;-77
2022/11/21 14:55:51;;;;;;;11.00;10.50;;;10.70;98.60;;;;;;5011033;28;20848;-75
2022/11/21 14:58:19;;;;;;;12.17;11.00;;;10.70;99.00;;;;;;5011022;28;20454;-76
2022/11/21 15:01:02;;;;;;;11.40;10.70;;;10.60;99.60;;;;;;5010468;28;20445;-75
2022/11/21 15:03:28;;;;;;;11.00;10.50;;;10.50;99.80;;;;;;5011011;28;20789;-77
2022/11/21 15:06:00;;;;;;;11.47;10.40;;;10.40;99.90;;;;;;5007196;28;20580;-76
2022/11/21 15:08:27;;;;;;;11.93;11.20;;;10.40;99.90;;;;;;4999918;28;20451;-78
2022/11/21 15:10:58;;;;;;;10.70;10.00;;;10.30;99.90;;;;;;5003795;28;20445;-77
2022/11/21 15:13:31;;;;;;;11.77;11.03;;;10.20;99.90;;;;;;5011043;28;20446;-75
2022/11/21 15:15:59;;;;;;;13.43;11.67;;;10.10;99.90;;;;;;4985894;28;20981;-75
2022/11/21 15:18:28;;;;;;;13.30;12.20;;;10.00;99.90;;;;;;4991029;28;20451;-75
2022/11/21 15:20:58;;;;;;;13.00;11.60;;;9.90;99.90;;;;;;4991289;28;20465;-75
2022/11/21 15:23:27;;;;;;;13.33;12.07;;;9.90;99.90;;;;;;5001249;28;20450;-75
2022/11/21 15:25:56;;;;;;;13.10;12.30;;;9.70;99.90;;;;;;5010523;28;20852;-75
2022/11/21 15:28:23;;;;;;;13.93;12.73;;;9.60;99.90;;;;;;5010587;28;20955;-75
2022/11/21 15:31:14;;;;;;;12.67;11.50;;;9.60;99.90;;;;;;5010371;28;20477;-76
2022/11/21 15:33:58;;;;;;;12.97;11.87;;;9.50;99.90;;;;;;5010654;28;20442;-75
2022/11/21 15:36:25;;;;;;;12.00;11.40;;;9.40;99.90;;;;;;5010200;28;20758;-75
2022/11/21 15:38:56;;;;;;;13.60;12.23;;;9.40;99.90;;;;;;5012123;28;20456;-75
2022/11/21 15:41:27;;;;;;;12.37;11.50;;;9.20;99.90;;;;;;4996222;28;20446;-74
2022/11/21 15:43:55;;;;;;;12.37;11.77;;;9.00;99.90;;;;;;4993972;28;20450;-76
2022/11/21 15:46:24;;;;;;;15.23;11.83;;;8.90;99.90;;;;;;5002782;28;20483;-76
2022/11/21 15:48:52;;;;;;;11.73;10.83;;;8.90;99.90;;;;;;4999240;28;20439;-75
2022/11/21 15:51:20;;;;;;;11.20;10.30;;;8.90;99.90;;;;;;5001482;28;20449;-75
2022/11/21 15:53:47;;;;;;;10.90;10.20;;;8.80;99.90;;;;;;5010240;28;20940;-74
2022/11/21 15:56:16;;;;;;;11.70;10.80;;;8.70;99.90;;;;;;4995282;28;20783;-74
2022/11/21 15:58:46;;;;;;;13.77;12.37;;;8.50;99.90;;;;;;4990264;28;21022;-75
2022/11/21 16:01:15;;;;;;;12.13;11.20;;;8.40;99.90;;;;;;4989917;28;20453;-75
2022/11/21 16:03:43;;;;;;;11.33;10.73;;;8.30;99.90;;;;;;4990176;28;20454;-75
2022/11/21 16:06:10;;;;;;;12.63;11.90;;;8.30;99.90;;;;;;4990541;28;20486;-74
2022/11/21 16:08:36;;;;;;;12.13;11.33;;;8.20;99.90;;;;;;4990559;28;20453;-74
2022/11/21 16:11:03;;;;;;;11.20;10.40;;;8.00;99.90;;;;;;4990481;28;20454;-75
2022/11/21 16:13:30;;;;;;;12.00;11.20;;;8.00;99.90;;;;;;4991380;28;20450;-75
2022/11/21 16:16:00;;;;;;;12.47;11.50;;;8.10;99.90;;;;;;5009919;28;20458;-75
2022/11/21 16:18:28;;;;;;;12.87;11.83;;;8.00;99.90;;;;;;5007840;28;20474;-76
2022/11/21 16:21:04;;;;;;;12.70;11.43;;;8.00;99.90;;;;;;5010237;28;20454;-76
2022/11/21 16:23:31;;;;;;;12.13;10.87;;;8.00;99.90;;;;;;5010321;28;20815;-74
2022/11/21 16:25:58;;;;;;;12.13;11.23;;;7.80;99.90;;;;;;5009765;28;20481;-75
2022/11/21 16:28:25;;;;;;;12.00;11.10;;;7.70;99.90;;;;;;5010205;28;20493;-77
2022/11/21 16:30:51;;;;;;;12.83;12.03;;;7.70;99.90;;;;;;5009771;28;20484;-77
2022/11/21 16:33:19;;;;;;;12.43;11.23;;;7.70;99.90;;;;;;5010005;28;20454;-78
2022/11/21 16:35:48;;;;;;;13.67;12.53;;;7.60;99.90;;;;;;5009610;28;20481;-77
2022/11/21 16:38:14;;;;;;;14.23;12.80;;;7.50;99.90;;;;;;5013388;28;20453;-77
2022/11/21 16:40:41;;;;;;;12.90;12.20;;;7.50;99.90;;;;;;5013603;28;20940;-78
2022/11/21 16:43:10;;;;;;;12.60;11.67;;;7.40;99.90;;;;;;5003804;28;20533;-76
2022/11/21 16:45:37;;;;;;;13.63;12.83;;;7.30;99.90;;;;;;4993930;28;20585;-79
2022/11/21 16:48:05;;;;;;;13.13;12.27;;;7.30;99.90;;;;;;4993673;28;20446;-78
2022/11/21 16:50:33;;;;;;;14.17;13.13;;;7.10;99.90;;;;;;4993868;28;20453;-76
2022/11/21 16:53:01;;;;;;;14.43;13.47;;;7.00;99.90;;;;;;4993904;28;20473;-78
2022/11/21 16:55:29;;;;;;;14.03;12.97;;;7.00;99.90;;;;;;4993903;28;20912;-77
2022/11/21 16:57:58;;;;;;;14.57;13.63;;;7.00;99.90;;;;;;4994078;28;20453;-77
2022/11/21 17:00:25;;;;;;;17.50;14.60;;;6.90;99.90;;;;;;4993655;28;20486;-77
2022/11/21 17:02:52;;;;;;;16.17;14.60;;;7.00;99.90;;;;;;4993329;28;20852;-78
2022/11/21 17:05:19;;;;;;;14.93;13.57;;;7.00;99.90;;;;;;4993449;28;20564;-79
2022/11/21 17:07:48;;;;;;;14.43;13.43;;;7.00;99.90;;;;;;4992603;28;20454;-78
2022/11/21 17:10:15;;;;;;;12.67;12.00;;;6.90;99.90;;;;;;4992950;28;20446;-77
2022/11/21 17:12:43;;;;;;;15.17;13.77;;;7.00;99.90;;;;;;4993447;28;20451;-78
2022/11/21 17:15:11;;;;;;;14.93;13.63;;;7.00;99.90;;;;;;5007697;28;20458;-78
2022/11/21 17:17:42;;;;;;;15.23;14.23;;;6.90;99.90;;;;;;5013095;28;20822;-77
2022/11/21 17:20:10;;;;;;;14.00;13.23;;;6.90;99.90;;;;;;5012859;28;20485;-76
2022/11/21 17:22:37;;;;;;;13.93;13.07;;;6.80;99.90;;;;;;5012616;28;20442;-77
2022/11/21 17:25:09;;;;;;;14.53;13.23;;;6.80;99.90;;;;;;5012644;28;20583;-78
2022/11/21 17:27:35;;;;;;;13.77;12.60;;;6.80;99.90;;;;;;5010835;28;20457;-77
2022/11/21 17:30:05;;;;;;;13.60;12.60;;;6.80;99.90;;;;;;5011011;28;20449;-77
2022/11/21 17:32:31;;;;;;;14.27;12.90;;;6.80;99.90;;;;;;5012697;28;20646;-77
2022/11/21 17:35:07;;;;;;;14.60;13.50;;;6.90;99.90;;;;;;5012750;28;20485;-77
2022/11/21 17:37:34;;;;;;;14.60;13.07;;;6.90;99.90;;;;;;5008634;28;20476;-77
2022/11/21 17:40:01;;;;;;;13.60;12.73;;;6.90;99.90;;;;;;5011949;28;20461;-77
2022/11/21 17:42:29;;;;;;;14.73;12.07;;;7.00;99.90;;;;;;5012646;28;20454;-77
2022/11/21 17:44:56;;;;;;;14.63;13.23;;;7.10;99.90;;;;;;5012832;28;20441;-77
2022/11/21 17:47:23;;;;;;;15.43;14.17;;;7.10;99.90;;;;;;5011909;28;20450;-76
2022/11/21 17:49:50;;;;;;;14.33;13.17;;;7.10;99.90;;;;;;5011351;28;20446;-76
2022/11/21 17:52:16;;;;;;;15.33;13.83;;;7.10;99.90;;;;;;5012375;28;20533;-76
2022/11/21 17:54:43;;;;;;;15.77;13.87;;;7.10;99.90;;;;;;5012693;28;20466;-76
2022/11/21 17:57:10;;;;;;;15.50;13.63;;;7.00;99.90;;;;;;5013891;28;20468;-77
2022/11/21 17:59:38;;;;;;;14.57;13.53;;;7.10;99.90;;;;;;5008995;28;20454;-76